sensor_id;sensor_type;location;lat;lon;timestamp;P1;durP1;ratioP1;P2;durP2;ratioP2
31764;SDS011;18338;53.240;8.798;2022-11-04T00:02:05;6.05;;;4.57;;
31764;SDS011;18338;53.240;8.798;2022-11-04T00:04:32;6.18;;;4.57;;
31764;SDS011;18338;53.240;8.798;2022-11-04T00:06:58;6.45;;;4.00;;
31764;SDS011;18338;53.240;8.798;2022-11-04T00:09:28;5.50;;;4.30;;
31764;SDS011;18338;53.240;8.798;2022-11-04T00:11:56;5.45;;;3.90;;
31764;SDS011;18338;53.240;8.798;2022-11-04T00:14:41;5.93;;;4.53;;
31764;SDS011;18338;53.240;8.798;2022-11-04T00:17:11;8.57;;;5.00;;
31764;SDS011;18338;53.240;8.798;2022-11-04T00:19:53;7.82;;;4.25;;
31764;SDS011;18338;53.240;8.798;2022-11-04T00:22:40;9.27;;;5.07;;
31764;SDS011;18338;53.240;8.798;2022-11-04T00:25:26;7.70;;;4.65;;
31764;SDS011;18338;53.240;8.798;2022-11-04T00:28:12;5.25;;;3.83;;
31764;SDS011;18338;53.240;8.798;2022-11-04T00:30:59;6.07;;;3.75;;
31764;SDS011;18338;53.240;8.798;2022-11-04T00:33:47;8.13;;;4.43;;
31764;SDS011;18338;53.240;8.798;2022-11-04T00:36:16;5.75;;;3.45;;
31764;SDS011;18338;53.240;8.798;2022-11-04T00:38:43;4.90;;;3.72;;
31764;SDS011;18338;53.240;8.798;2022-11-04T00:41:10;5.70;;;3.80;;
31764;SDS011;18338;53.240;8.798;2022-11-04T00:43:53;5.00;;;3.25;;
31764;SDS011;18338;53.240;8.798;2022-11-04T00:46:21;8.68;;;4.50;;
31764;SDS011;18338;53.240;8.798;2022-11-04T00:48:48;5.20;;;3.83;;
31764;SDS011;18338;53.240;8.798;2022-11-04T00:51:15;7.25;;;4.63;;
31764;SDS011;18338;53.240;8.798;2022-11-04T00:53:41;6.00;;;4.72;;
31764;SDS011;18338;53.240;8.798;2022-11-04T00:56:08;5.20;;;4.70;;
31764;SDS011;18338;53.240;8.798;2022-11-04T00:58:35;8.48;;;4.90;;
31764;SDS011;18338;53.240;8.798;2022-11-04T01:01:08;7.93;;;5.10;;
31764;SDS011;18338;53.240;8.798;2022-11-04T01:03:36;7.57;;;5.57;;
31764;SDS011;18338;53.240;8.798;2022-11-04T01:06:04;7.78;;;4.82;;
31764;SDS011;18338;53.240;8.798;2022-11-04T01:08:31;8.88;;;5.72;;
31764;SDS011;18338;53.240;8.798;2022-11-04T01:11:05;9.07;;;5.45;;
31764;SDS011;18338;53.240;8.798;2022-11-04T01:13:33;7.72;;;5.18;;
31764;SDS011;18338;53.240;8.798;2022-11-04T01:16:00;7.72;;;5.65;;
31764;SDS011;18338;53.240;8.798;2022-11-04T01:18:28;8.02;;;4.82;;
31764;SDS011;18338;53.240;8.798;2022-11-04T01:20:59;5.97;;;5.20;;
31764;SDS011;18338;53.240;8.798;2022-11-04T01:23:27;8.40;;;5.70;;
31764;SDS011;18338;53.240;8.798;2022-11-04T01:25:54;7.82;;;5.88;;
31764;SDS011;18338;53.240;8.798;2022-11-04T01:28:20;7.68;;;5.95;;
31764;SDS011;18338;53.240;8.798;2022-11-04T01:30:47;7.30;;;5.63;;
31764;SDS011;18338;53.240;8.798;2022-11-04T01:33:14;7.18;;;5.45;;
31764;SDS011;18338;53.240;8.798;2022-11-04T01:35:41;7.35;;;5.30;;
31764;SDS011;18338;53.240;8.798;2022-11-04T01:38:07;8.45;;;5.75;;
31764;SDS011;18338;53.240;8.798;2022-11-04T01:40:38;10.50;;;5.85;;
31764;SDS011;18338;53.240;8.798;2022-11-04T01:43:17;8.68;;;5.80;;
31764;SDS011;18338;53.240;8.798;2022-11-04T01:45:53;8.32;;;6.15;;
31764;SDS011;18338;53.240;8.798;2022-11-04T01:48:25;7.68;;;6.22;;
31764;SDS011;18338;53.240;8.798;2022-11-04T01:50:55;7.13;;;5.88;;
31764;SDS011;18338;53.240;8.798;2022-11-04T01:53:24;7.95;;;6.63;;
31764;SDS011;18338;53.240;8.798;2022-11-04T01:55:58;8.57;;;6.75;;
31764;SDS011;18338;53.240;8.798;2022-11-04T01:58:29;9.77;;;6.50;;
31764;SDS011;18338;53.240;8.798;2022-11-04T02:01:02;8.50;;;6.38;;
31764;SDS011;18338;53.240;8.798;2022-11-04T02:03:31;6.72;;;5.07;;
31764;SDS011;18338;53.240;8.798;2022-11-04T02:06:01;7.00;;;5.68;;
31764;SDS011;18338;53.240;8.798;2022-11-04T02:08:29;7.72;;;6.20;;
31764;SDS011;18338;53.240;8.798;2022-11-04T02:10:57;9.02;;;6.80;;
31764;SDS011;18338;53.240;8.798;2022-11-04T02:13:26;7.53;;;6.65;;
31764;SDS011;18338;53.240;8.798;2022-11-04T02:16:15;10.32;;;6.90;;
31764;SDS011;18338;53.240;8.798;2022-11-04T02:18:53;8.13;;;6.72;;
31764;SDS011;18338;53.240;8.798;2022-11-04T02:24:26;8.13;;;7.15;;
31764;SDS011;18338;53.240;8.798;2022-11-04T02:30:06;9.43;;;7.55;;
31764;SDS011;18338;53.240;8.798;2022-11-04T02:38:49;8.07;;;7.28;;
31764;SDS011;18338;53.240;8.798;2022-11-04T02:46:37;7.45;;;6.47;;
31764;SDS011;18338;53.240;8.798;2022-11-04T02:49:12;8.05;;;7.30;;
31764;SDS011;18338;53.240;8.798;2022-11-04T02:54:25;8.68;;;7.82;;
31764;SDS011;18338;53.240;8.798;2022-11-04T02:57:01;8.45;;;6.57;;
31764;SDS011;18338;53.240;8.798;2022-11-04T02:59:36;7.47;;;6.78;;
31764;SDS011;18338;53.240;8.798;2022-11-04T03:02:07;6.50;;;5.53;;
31764;SDS011;18338;53.240;8.798;2022-11-04T03:04:42;4.53;;;4.13;;
31764;SDS011;18338;53.240;8.798;2022-11-04T03:07:14;4.90;;;4.40;;
31764;SDS011;18338;53.240;8.798;2022-11-04T03:09:46;2.85;;;2.33;;
31764;SDS011;18338;53.240;8.798;2022-11-04T03:12:18;2.47;;;2.10;;
31764;SDS011;18338;53.240;8.798;2022-11-04T03:14:53;4.13;;;1.60;;
31764;SDS011;18338;53.240;8.798;2022-11-04T03:17:41;1.50;;;1.40;;
31764;SDS011;18338;53.240;8.798;2022-11-04T03:20:30;2.10;;;1.60;;
31764;SDS011;18338;53.240;8.798;2022-11-04T03:22:58;1.40;;;1.20;;
31764;SDS011;18338;53.240;8.798;2022-11-04T03:25:26;1.98;;;1.30;;
31764;SDS011;18338;53.240;8.798;2022-11-04T03:30:30;1.42;;;1.02;;
31764;SDS011;18338;53.240;8.798;2022-11-04T03:35:43;1.65;;;0.90;;
31764;SDS011;18338;53.240;8.798;2022-11-04T03:38:10;1.15;;;0.90;;
31764;SDS011;18338;53.240;8.798;2022-11-04T03:40:37;1.10;;;1.00;;
31764;SDS011;18338;53.240;8.798;2022-11-04T03:43:06;2.55;;;1.52;;
31764;SDS011;18338;53.240;8.798;2022-11-04T03:45:42;2.85;;;1.10;;
31764;SDS011;18338;53.240;8.798;2022-11-04T03:48:10;1.65;;;1.10;;
31764;SDS011;18338;53.240;8.798;2022-11-04T03:50:42;1.10;;;1.00;;
31764;SDS011;18338;53.240;8.798;2022-11-04T03:53:13;1.30;;;1.20;;
31764;SDS011;18338;53.240;8.798;2022-11-04T03:55:47;1.95;;;1.23;;
31764;SDS011;18338;53.240;8.798;2022-11-04T04:04:12;3.13;;;2.05;;
31764;SDS011;18338;53.240;8.798;2022-11-04T04:07:03;1.60;;;1.50;;
31764;SDS011;18338;53.240;8.798;2022-11-04T04:09:43;2.40;;;2.13;;
31764;SDS011;18338;53.240;8.798;2022-11-04T04:12:37;2.63;;;2.38;;
31764;SDS011;18338;53.240;8.798;2022-11-04T04:15:07;2.85;;;2.38;;
31764;SDS011;18338;53.240;8.798;2022-11-04T04:17:49;2.85;;;1.85;;
31764;SDS011;18338;53.240;8.798;2022-11-04T04:20:21;3.38;;;2.30;;
31764;SDS011;18338;53.240;8.798;2022-11-04T04:22:51;3.33;;;2.67;;
31764;SDS011;18338;53.240;8.798;2022-11-04T04:25:55;3.83;;;2.80;;
31764;SDS011;18338;53.240;8.798;2022-11-04T04:28:44;3.05;;;2.38;;
31764;SDS011;18338;53.240;8.798;2022-11-04T04:31:12;3.75;;;3.28;;
31764;SDS011;18338;53.240;8.798;2022-11-04T04:34:04;3.22;;;2.97;;
31764;SDS011;18338;53.240;8.798;2022-11-04T04:36:32;4.35;;;2.90;;
31764;SDS011;18338;53.240;8.798;2022-11-04T04:39:05;4.45;;;3.75;;
31764;SDS011;18338;53.240;8.798;2022-11-04T04:41:53;4.68;;;4.13;;
31764;SDS011;18338;53.240;8.798;2022-11-04T04:44:40;4.03;;;3.65;;
31764;SDS011;18338;53.240;8.798;2022-11-04T04:47:27;4.78;;;4.28;;
31764;SDS011;18338;53.240;8.798;2022-11-04T04:50:04;4.32;;;3.92;;
31764;SDS011;18338;53.240;8.798;2022-11-04T04:52:32;5.47;;;4.18;;
31764;SDS011;18338;53.240;8.798;2022-11-04T04:55:05;5.18;;;4.68;;
31764;SDS011;18338;53.240;8.798;2022-11-04T04:57:34;5.07;;;4.57;;
31764;SDS011;18338;53.240;8.798;2022-11-04T05:00:03;5.35;;;4.55;;
31764;SDS011;18338;53.240;8.798;2022-11-04T05:02:31;5.43;;;4.93;;
31764;SDS011;18338;53.240;8.798;2022-11-04T05:04:58;5.00;;;4.60;;
31764;SDS011;18338;53.240;8.798;2022-11-04T05:07:26;5.47;;;4.93;;
31764;SDS011;18338;53.240;8.798;2022-11-04T05:09:53;5.30;;;4.70;;
31764;SDS011;18338;53.240;8.798;2022-11-04T05:12:20;5.22;;;4.65;;
31764;SDS011;18338;53.240;8.798;2022-11-04T05:14:46;6.47;;;5.43;;
31764;SDS011;18338;53.240;8.798;2022-11-04T05:17:13;5.43;;;4.93;;
31764;SDS011;18338;53.240;8.798;2022-11-04T05:19:40;6.00;;;4.90;;
31764;SDS011;18338;53.240;8.798;2022-11-04T05:22:07;5.07;;;4.57;;
31764;SDS011;18338;53.240;8.798;2022-11-04T05:24:38;4.90;;;4.50;;
31764;SDS011;18338;53.240;8.798;2022-11-04T05:27:05;5.75;;;5.22;;
31764;SDS011;18338;53.240;8.798;2022-11-04T05:29:32;6.53;;;4.78;;
31764;SDS011;18338;53.240;8.798;2022-11-04T05:32:01;5.28;;;4.78;;
31764;SDS011;18338;53.240;8.798;2022-11-04T05:34:28;7.00;;;5.15;;
31764;SDS011;18338;53.240;8.798;2022-11-04T05:36:55;5.20;;;4.70;;
31764;SDS011;18338;53.240;8.798;2022-11-04T05:39:22;5.07;;;4.57;;
31764;SDS011;18338;53.240;8.798;2022-11-04T05:42:03;5.80;;;5.20;;
31764;SDS011;18338;53.240;8.798;2022-11-04T05:44:30;6.20;;;5.63;;
31764;SDS011;18338;53.240;8.798;2022-11-04T05:46:57;5.72;;;5.20;;
31764;SDS011;18338;53.240;8.798;2022-11-04T05:49:38;6.07;;;5.57;;
31764;SDS011;18338;53.240;8.798;2022-11-04T05:52:04;5.88;;;5.35;;
31764;SDS011;18338;53.240;8.798;2022-11-04T05:54:36;5.82;;;5.30;;
31764;SDS011;18338;53.240;8.798;2022-11-04T05:57:09;5.75;;;5.25;;
31764;SDS011;18338;53.240;8.798;2022-11-04T05:59:39;7.20;;;5.70;;
31764;SDS011;18338;53.240;8.798;2022-11-04T06:02:07;5.85;;;5.35;;
31764;SDS011;18338;53.240;8.798;2022-11-04T06:04:36;5.43;;;4.93;;
31764;SDS011;18338;53.240;8.798;2022-11-04T06:07:09;6.10;;;5.40;;
31764;SDS011;18338;53.240;8.798;2022-11-04T06:09:44;4.80;;;4.40;;
31764;SDS011;18338;53.240;8.798;2022-11-04T06:12:12;5.22;;;4.68;;
31764;SDS011;18338;53.240;8.798;2022-11-04T06:14:43;5.22;;;4.82;;
31764;SDS011;18338;53.240;8.798;2022-11-04T06:17:14;4.80;;;4.30;;
31764;SDS011;18338;53.240;8.798;2022-11-04T06:19:46;4.63;;;4.18;;
31764;SDS011;18338;53.240;8.798;2022-11-04T06:22:14;3.45;;;3.15;;
31764;SDS011;18338;53.240;8.798;2022-11-04T06:24:43;4.88;;;3.80;;
31764;SDS011;18338;53.240;8.798;2022-11-04T06:27:11;3.55;;;3.20;;
31764;SDS011;18338;53.240;8.798;2022-11-04T06:29:39;3.75;;;3.45;;
31764;SDS011;18338;53.240;8.798;2022-11-04T06:32:35;3.60;;;3.25;;
31764;SDS011;18338;53.240;8.798;2022-11-04T06:35:03;2.13;;;1.98;;
31764;SDS011;18338;53.240;8.798;2022-11-04T06:37:31;2.65;;;1.90;;
31764;SDS011;18338;53.240;8.798;2022-11-04T06:40:00;1.92;;;1.80;;
31764;SDS011;18338;53.240;8.798;2022-11-04T06:42:28;2.00;;;1.60;;
31764;SDS011;18338;53.240;8.798;2022-11-04T06:44:56;1.42;;;1.33;;
31764;SDS011;18338;53.240;8.798;2022-11-04T06:47:27;1.27;;;1.13;;
31764;SDS011;18338;53.240;8.798;2022-11-04T06:50:10;2.05;;;1.85;;
31764;SDS011;18338;53.240;8.798;2022-11-04T06:52:43;1.70;;;1.52;;
31764;SDS011;18338;53.240;8.798;2022-11-04T06:55:17;2.33;;;2.13;;
31764;SDS011;18338;53.240;8.798;2022-11-04T06:57:59;2.20;;;2.00;;
31764;SDS011;18338;53.240;8.798;2022-11-04T07:00:26;3.00;;;2.63;;
31764;SDS011;18338;53.240;8.798;2022-11-04T07:02:53;2.50;;;2.30;;
31764;SDS011;18338;53.240;8.798;2022-11-04T07:05:20;2.53;;;2.33;;
31764;SDS011;18338;53.240;8.798;2022-11-04T07:07:47;2.72;;;2.47;;
31764;SDS011;18338;53.240;8.798;2022-11-04T07:10:16;3.08;;;2.75;;
31764;SDS011;18338;53.240;8.798;2022-11-04T07:12:43;2.90;;;2.60;;
31764;SDS011;18338;53.240;8.798;2022-11-04T07:15:10;2.97;;;2.70;;
31764;SDS011;18338;53.240;8.798;2022-11-04T07:17:37;3.15;;;2.53;;
31764;SDS011;18338;53.240;8.798;2022-11-04T07:20:04;1.85;;;1.75;;
31764;SDS011;18338;53.240;8.798;2022-11-04T07:22:31;2.63;;;1.38;;
31764;SDS011;18338;53.240;8.798;2022-11-04T07:24:58;2.17;;;1.73;;
31764;SDS011;18338;53.240;8.798;2022-11-04T07:27:24;1.98;;;1.70;;
31764;SDS011;18338;53.240;8.798;2022-11-04T07:29:51;2.72;;;1.50;;
31764;SDS011;18338;53.240;8.798;2022-11-04T07:32:18;1.50;;;1.40;;
31764;SDS011;18338;53.240;8.798;2022-11-04T07:34:44;1.60;;;1.50;;
31764;SDS011;18338;53.240;8.798;2022-11-04T07:37:11;3.13;;;1.73;;
31764;SDS011;18338;53.240;8.798;2022-11-04T07:39:38;2.38;;;1.80;;
31764;SDS011;18338;53.240;8.798;2022-11-04T07:42:07;1.85;;;1.58;;
31764;SDS011;18338;53.240;8.798;2022-11-04T07:44:34;1.20;;;1.08;;
31764;SDS011;18338;53.240;8.798;2022-11-04T07:47:01;1.63;;;1.20;;
31764;SDS011;18338;53.240;8.798;2022-11-04T07:49:28;2.38;;;1.45;;
31764;SDS011;18338;53.240;8.798;2022-11-04T07:51:54;1.20;;;0.90;;
31764;SDS011;18338;53.240;8.798;2022-11-04T07:54:21;1.58;;;1.10;;
31764;SDS011;18338;53.240;8.798;2022-11-04T07:56:48;1.20;;;0.90;;
31764;SDS011;18338;53.240;8.798;2022-11-04T07:59:14;1.83;;;1.05;;
31764;SDS011;18338;53.240;8.798;2022-11-04T08:01:41;1.23;;;0.90;;
31764;SDS011;18338;53.240;8.798;2022-11-04T08:04:08;0.80;;;0.80;;
31764;SDS011;18338;53.240;8.798;2022-11-04T08:06:36;2.10;;;0.82;;
31764;SDS011;18338;53.240;8.798;2022-11-04T08:09:03;0.70;;;0.70;;
31764;SDS011;18338;53.240;8.798;2022-11-04T08:11:30;0.82;;;0.77;;
31764;SDS011;18338;53.240;8.798;2022-11-04T08:13:57;1.48;;;0.90;;
31764;SDS011;18338;53.240;8.798;2022-11-04T08:16:23;1.15;;;1.00;;
31764;SDS011;18338;53.240;8.798;2022-11-04T08:18:58;1.25;;;0.85;;
31764;SDS011;18338;53.240;8.798;2022-11-04T08:21:27;1.67;;;0.73;;
31764;SDS011;18338;53.240;8.798;2022-11-04T08:23:55;1.50;;;0.70;;
31764;SDS011;18338;53.240;8.798;2022-11-04T08:26:22;1.00;;;0.52;;
31764;SDS011;18338;53.240;8.798;2022-11-04T08:28:50;2.00;;;0.90;;
31764;SDS011;18338;53.240;8.798;2022-11-04T08:31:18;1.73;;;0.60;;
31764;SDS011;18338;53.240;8.798;2022-11-04T08:33:50;2.13;;;0.70;;
31764;SDS011;18338;53.240;8.798;2022-11-04T08:36:22;0.85;;;0.52;;
31764;SDS011;18338;53.240;8.798;2022-11-04T08:38:51;0.55;;;0.50;;
31764;SDS011;18338;53.240;8.798;2022-11-04T08:41:20;0.55;;;0.50;;
31764;SDS011;18338;53.240;8.798;2022-11-04T08:43:48;0.68;;;0.40;;
31764;SDS011;18338;53.240;8.798;2022-11-04T08:46:15;0.73;;;0.50;;
31764;SDS011;18338;53.240;8.798;2022-11-04T08:48:42;2.13;;;0.85;;
31764;SDS011;18338;53.240;8.798;2022-11-04T08:51:11;2.95;;;0.65;;
31764;SDS011;18338;53.240;8.798;2022-11-04T08:53:40;2.08;;;0.50;;
31764;SDS011;18338;53.240;8.798;2022-11-04T08:56:09;1.52;;;0.40;;
31764;SDS011;18338;53.240;8.798;2022-11-04T08:58:36;0.50;;;0.50;;
31764;SDS011;18338;53.240;8.798;2022-11-04T09:01:03;0.75;;;0.43;;
31764;SDS011;18338;53.240;8.798;2022-11-04T09:03:31;0.60;;;0.47;;
31764;SDS011;18338;53.240;8.798;2022-11-04T09:05:59;1.20;;;0.47;;
31764;SDS011;18338;53.240;8.798;2022-11-04T09:08:26;1.85;;;0.55;;
31764;SDS011;18338;53.240;8.798;2022-11-04T09:10:53;1.08;;;0.40;;
31764;SDS011;18338;53.240;8.798;2022-11-04T09:13:20;1.23;;;0.50;;
31764;SDS011;18338;53.240;8.798;2022-11-04T09:15:46;0.75;;;0.32;;
31764;SDS011;18338;53.240;8.798;2022-11-04T09:18:14;1.48;;;0.57;;
31764;SDS011;18338;53.240;8.798;2022-11-04T09:20:41;0.63;;;0.30;;
31764;SDS011;18338;53.240;8.798;2022-11-04T09:23:07;0.90;;;0.40;;
31764;SDS011;18338;53.240;8.798;2022-11-04T09:25:35;2.33;;;0.30;;
31764;SDS011;18338;53.240;8.798;2022-11-04T09:28:02;1.40;;;0.40;;
31764;SDS011;18338;53.240;8.798;2022-11-04T09:30:29;0.80;;;0.30;;
31764;SDS011;18338;53.240;8.798;2022-11-04T09:32:56;0.65;;;0.30;;
31764;SDS011;18338;53.240;8.798;2022-11-04T09:35:23;0.77;;;0.30;;
31764;SDS011;18338;53.240;8.798;2022-11-04T09:37:52;0.60;;;0.30;;
31764;SDS011;18338;53.240;8.798;2022-11-04T09:40:20;1.35;;;0.50;;
31764;SDS011;18338;53.240;8.798;2022-11-04T09:45:28;1.33;;;0.30;;
31764;SDS011;18338;53.240;8.798;2022-11-04T09:47:58;0.77;;;0.30;;
31764;SDS011;18338;53.240;8.798;2022-11-04T09:50:30;1.00;;;0.30;;
31764;SDS011;18338;53.240;8.798;2022-11-04T09:53:06;1.25;;;0.47;;
31764;SDS011;18338;53.240;8.798;2022-11-04T09:55:50;1.58;;;1.23;;
31764;SDS011;18338;53.240;8.798;2022-11-04T09:58:22;6.28;;;5.68;;
31764;SDS011;18338;53.240;8.798;2022-11-04T10:00:52;3.05;;;2.67;;
31764;SDS011;18338;53.240;8.798;2022-11-04T10:09:21;1.67;;;0.50;;
31764;SDS011;18338;53.240;8.798;2022-11-04T10:12:24;1.40;;;0.60;;
31764;SDS011;18338;53.240;8.798;2022-11-04T10:23:21;1.23;;;0.73;;
31764;SDS011;18338;53.240;8.798;2022-11-04T10:28:29;1.35;;;0.77;;
31764;SDS011;18338;53.240;8.798;2022-11-04T10:31:02;5.13;;;3.35;;
31764;SDS011;18338;53.240;8.798;2022-11-04T10:33:38;1.85;;;1.60;;
31764;SDS011;18338;53.240;8.798;2022-11-04T10:36:15;0.57;;;0.40;;
31764;SDS011;18338;53.240;8.798;2022-11-04T10:38:43;1.17;;;0.57;;
31764;SDS011;18338;53.240;8.798;2022-11-04T10:41:14;5.60;;;4.18;;
31764;SDS011;18338;53.240;8.798;2022-11-04T10:43:44;0.90;;;0.60;;
31764;SDS011;18338;53.240;8.798;2022-11-04T10:46:17;0.90;;;0.40;;
31764;SDS011;18338;53.240;8.798;2022-11-04T10:48:54;1.05;;;0.50;;
31764;SDS011;18338;53.240;8.798;2022-11-04T10:51:50;1.60;;;0.50;;
31764;SDS011;18338;53.240;8.798;2022-11-04T10:54:19;2.15;;;0.60;;
31764;SDS011;18338;53.240;8.798;2022-11-04T10:56:48;1.08;;;0.65;;
31764;SDS011;18338;53.240;8.798;2022-11-04T10:59:30;0.77;;;0.60;;
31764;SDS011;18338;53.240;8.798;2022-11-04T11:02:04;4.63;;;2.05;;
31764;SDS011;18338;53.240;8.798;2022-11-04T11:04:32;2.70;;;0.75;;
31764;SDS011;18338;53.240;8.798;2022-11-04T11:07:02;1.33;;;0.80;;
31764;SDS011;18338;53.240;8.798;2022-11-04T11:14:58;3.03;;;0.85;;
31764;SDS011;18338;53.240;8.798;2022-11-04T11:17:42;3.20;;;0.77;;
31764;SDS011;18338;53.240;8.798;2022-11-04T11:20:21;1.60;;;0.60;;
31764;SDS011;18338;53.240;8.798;2022-11-04T11:22:49;2.42;;;0.60;;
31764;SDS011;18338;53.240;8.798;2022-11-04T11:27:51;1.63;;;0.60;;
31764;SDS011;18338;53.240;8.798;2022-11-04T11:30:21;2.03;;;0.68;;
31764;SDS011;18338;53.240;8.798;2022-11-04T11:33:06;1.70;;;0.70;;
31764;SDS011;18338;53.240;8.798;2022-11-04T11:38:22;1.88;;;0.80;;
31764;SDS011;18338;53.240;8.798;2022-11-04T11:40:53;2.08;;;0.80;;
31764;SDS011;18338;53.240;8.798;2022-11-04T11:43:50;2.50;;;0.80;;
31764;SDS011;18338;53.240;8.798;2022-11-04T11:46:21;1.30;;;0.80;;
31764;SDS011;18338;53.240;8.798;2022-11-04T11:48:51;2.50;;;0.90;;
31764;SDS011;18338;53.240;8.798;2022-11-04T11:51:25;1.77;;;1.00;;
31764;SDS011;18338;53.240;8.798;2022-11-04T11:56:31;3.70;;;1.42;;
31764;SDS011;18338;53.240;8.798;2022-11-04T11:59:36;1.73;;;1.23;;
31764;SDS011;18338;53.240;8.798;2022-11-04T12:05:00;4.38;;;1.20;;
31764;SDS011;18338;53.240;8.798;2022-11-04T12:10:59;1.85;;;1.20;;
31764;SDS011;18338;53.240;8.798;2022-11-04T12:13:39;3.00;;;1.40;;
31764;SDS011;18338;53.240;8.798;2022-11-04T12:16:17;4.45;;;0.90;;
31764;SDS011;18338;53.240;8.798;2022-11-04T12:19:06;2.42;;;1.33;;
31764;SDS011;18338;53.240;8.798;2022-11-04T12:24:37;3.15;;;1.35;;
31764;SDS011;18338;53.240;8.798;2022-11-04T12:30:05;2.90;;;1.10;;
31764;SDS011;18338;53.240;8.798;2022-11-04T12:33:00;3.72;;;1.10;;
31764;SDS011;18338;53.240;8.798;2022-11-04T12:35:34;2.60;;;1.10;;
31764;SDS011;18338;53.240;8.798;2022-11-04T12:41:14;2.97;;;1.50;;
31764;SDS011;18338;53.240;8.798;2022-11-04T12:47:09;4.22;;;1.65;;
31764;SDS011;18338;53.240;8.798;2022-11-04T12:50:03;2.45;;;1.00;;
31764;SDS011;18338;53.240;8.798;2022-11-04T12:55:34;1.98;;;1.10;;
31764;SDS011;18338;53.240;8.798;2022-11-04T13:00:50;2.28;;;1.20;;
31764;SDS011;18338;53.240;8.798;2022-11-04T13:03:57;2.88;;;1.30;;
31764;SDS011;18338;53.240;8.798;2022-11-04T13:06:33;1.02;;;0.60;;
31764;SDS011;18338;53.240;8.798;2022-11-04T13:09:13;2.33;;;0.93;;
31764;SDS011;18338;53.240;8.798;2022-11-04T13:11:50;3.13;;;1.17;;
31764;SDS011;18338;53.240;8.798;2022-11-04T13:14:24;2.22;;;1.02;;
31764;SDS011;18338;53.240;8.798;2022-11-04T13:17:05;1.23;;;0.70;;
31764;SDS011;18338;53.240;8.798;2022-11-04T13:19:48;2.17;;;0.90;;
31764;SDS011;18338;53.240;8.798;2022-11-04T13:22:23;1.85;;;0.80;;
31764;SDS011;18338;53.240;8.798;2022-11-04T13:24:59;2.65;;;1.45;;
31764;SDS011;18338;53.240;8.798;2022-11-04T13:27:39;13.38;;;5.10;;
31764;SDS011;18338;53.240;8.798;2022-11-04T13:30:29;29.38;;;18.25;;
31764;SDS011;18338;53.240;8.798;2022-11-04T13:33:07;46.85;;;27.50;;
31764;SDS011;18338;53.240;8.798;2022-11-04T13:35:44;59.15;;;35.45;;
31764;SDS011;18338;53.240;8.798;2022-11-04T13:38:18;57.20;;;34.60;;
31764;SDS011;18338;53.240;8.798;2022-11-04T13:43:50;3.67;;;2.25;;
31764;SDS011;18338;53.240;8.798;2022-11-04T13:48:51;4.18;;;2.30;;
31764;SDS011;18338;53.240;8.798;2022-11-04T13:51:39;3.08;;;1.30;;
31764;SDS011;18338;53.240;8.798;2022-11-04T13:54:26;3.42;;;1.20;;
31764;SDS011;18338;53.240;8.798;2022-11-04T13:57:06;2.38;;;1.30;;
31764;SDS011;18338;53.240;8.798;2022-11-04T13:59:34;3.30;;;1.08;;
31764;SDS011;18338;53.240;8.798;2022-11-04T14:02:22;1.88;;;1.05;;
31764;SDS011;18338;53.240;8.798;2022-11-04T14:04:51;1.42;;;0.95;;
31764;SDS011;18338;53.240;8.798;2022-11-04T14:07:18;3.55;;;1.30;;
31764;SDS011;18338;53.240;8.798;2022-11-04T14:10:30;3.17;;;1.10;;
31764;SDS011;18338;53.240;8.798;2022-11-04T14:13:39;2.47;;;1.00;;
31764;SDS011;18338;53.240;8.798;2022-11-04T14:16:10;2.72;;;1.00;;
31764;SDS011;18338;53.240;8.798;2022-11-04T14:18:50;2.92;;;1.00;;
31764;SDS011;18338;53.240;8.798;2022-11-04T14:21:20;1.85;;;1.40;;
31764;SDS011;18338;53.240;8.798;2022-11-04T14:23:51;4.05;;;1.10;;
31764;SDS011;18338;53.240;8.798;2022-11-04T14:26:27;4.78;;;1.35;;
31764;SDS011;18338;53.240;8.798;2022-11-04T14:29:15;2.03;;;0.70;;
31764;SDS011;18338;53.240;8.798;2022-11-04T14:31:47;2.38;;;0.52;;
31764;SDS011;18338;53.240;8.798;2022-11-04T14:37:18;1.75;;;0.65;;
31764;SDS011;18338;53.240;8.798;2022-11-04T14:39:55;3.15;;;0.75;;
31764;SDS011;18338;53.240;8.798;2022-11-04T14:42:41;2.05;;;0.65;;
31764;SDS011;18338;53.240;8.798;2022-11-04T14:45:14;1.73;;;0.60;;
31764;SDS011;18338;53.240;8.798;2022-11-04T14:47:45;2.42;;;0.82;;
31764;SDS011;18338;53.240;8.798;2022-11-04T14:50:19;2.08;;;0.80;;
31764;SDS011;18338;53.240;8.798;2022-11-04T14:52:54;2.45;;;0.70;;
31764;SDS011;18338;53.240;8.798;2022-11-04T14:55:24;2.65;;;0.80;;
31764;SDS011;18338;53.240;8.798;2022-11-04T14:57:54;3.90;;;2.80;;
31764;SDS011;18338;53.240;8.798;2022-11-04T15:03:15;3.40;;;0.80;;
31764;SDS011;18338;53.240;8.798;2022-11-04T15:06:09;3.45;;;1.02;;
31764;SDS011;18338;53.240;8.798;2022-11-04T15:08:41;4.07;;;0.90;;
31764;SDS011;18338;53.240;8.798;2022-11-04T15:16:21;4.80;;;1.70;;
31764;SDS011;18338;53.240;8.798;2022-11-04T15:18:53;3.55;;;1.13;;
31764;SDS011;18338;53.240;8.798;2022-11-04T15:21:23;2.72;;;1.10;;
31764;SDS011;18338;53.240;8.798;2022-11-04T15:23:51;4.60;;;1.40;;
31764;SDS011;18338;53.240;8.798;2022-11-04T15:26:26;7.45;;;1.65;;
31764;SDS011;18338;53.240;8.798;2022-11-04T15:28:59;5.75;;;1.10;;
31764;SDS011;18338;53.240;8.798;2022-11-04T15:31:32;2.88;;;0.88;;
31764;SDS011;18338;53.240;8.798;2022-11-04T15:34:04;3.40;;;1.20;;
31764;SDS011;18338;53.240;8.798;2022-11-04T15:36:40;3.65;;;1.20;;
31764;SDS011;18338;53.240;8.798;2022-11-04T15:39:13;4.25;;;0.95;;
31764;SDS011;18338;53.240;8.798;2022-11-04T15:42:16;2.80;;;1.63;;
31764;SDS011;18338;53.240;8.798;2022-11-04T15:47:48;6.75;;;2.45;;
31764;SDS011;18338;53.240;8.798;2022-11-04T15:50:22;7.68;;;2.50;;
31764;SDS011;18338;53.240;8.798;2022-11-04T15:52:51;7.93;;;2.13;;
31764;SDS011;18338;53.240;8.798;2022-11-04T15:55:20;5.53;;;2.45;;
31764;SDS011;18338;53.240;8.798;2022-11-04T15:57:48;6.72;;;3.60;;
31764;SDS011;18338;53.240;8.798;2022-11-04T16:02:49;7.53;;;2.70;;
31764;SDS011;18338;53.240;8.798;2022-11-04T16:07:45;5.55;;;2.30;;
31764;SDS011;18338;53.240;8.798;2022-11-04T16:10:29;8.10;;;2.47;;
31764;SDS011;18338;53.240;8.798;2022-11-04T16:13:01;5.93;;;1.98;;
31764;SDS011;18338;53.240;8.798;2022-11-04T16:18:32;6.55;;;2.90;;
31764;SDS011;18338;53.240;8.798;2022-11-04T16:21:30;5.30;;;1.38;;
31764;SDS011;18338;53.240;8.798;2022-11-04T16:24:01;6.18;;;1.40;;
31764;SDS011;18338;53.240;8.798;2022-11-04T16:26:33;5.65;;;2.30;;
31764;SDS011;18338;53.240;8.798;2022-11-04T16:29:17;5.30;;;2.63;;
31764;SDS011;18338;53.240;8.798;2022-11-04T16:32:14;7.53;;;2.13;;
31764;SDS011;18338;53.240;8.798;2022-11-04T16:35:22;5.50;;;1.38;;
31764;SDS011;18338;53.240;8.798;2022-11-04T16:37:51;4.22;;;1.17;;
31764;SDS011;18338;53.240;8.798;2022-11-04T16:40:18;3.92;;;1.45;;
31764;SDS011;18338;53.240;8.798;2022-11-04T16:42:45;4.55;;;1.30;;
31764;SDS011;18338;53.240;8.798;2022-11-04T16:45:19;3.90;;;1.70;;
31764;SDS011;18338;53.240;8.798;2022-11-04T16:47:47;4.53;;;1.52;;
31764;SDS011;18338;53.240;8.798;2022-11-04T16:50:14;3.50;;;1.65;;
31764;SDS011;18338;53.240;8.798;2022-11-04T16:52:41;5.50;;;1.30;;
31764;SDS011;18338;53.240;8.798;2022-11-04T16:55:12;3.70;;;1.98;;
31764;SDS011;18338;53.240;8.798;2022-11-04T16:57:40;6.15;;;1.40;;
31764;SDS011;18338;53.240;8.798;2022-11-04T17:00:15;3.75;;;1.40;;
31764;SDS011;18338;53.240;8.798;2022-11-04T17:02:47;8.75;;;1.63;;
31764;SDS011;18338;53.240;8.798;2022-11-04T17:05:15;6.53;;;3.33;;
31764;SDS011;18338;53.240;8.798;2022-11-04T17:07:43;4.10;;;2.28;;
31764;SDS011;18338;53.240;8.798;2022-11-04T17:10:24;5.90;;;2.40;;
31764;SDS011;18338;53.240;8.798;2022-11-04T17:12:53;3.20;;;1.73;;
31764;SDS011;18338;53.240;8.798;2022-11-04T17:15:20;6.68;;;2.00;;
31764;SDS011;18338;53.240;8.798;2022-11-04T17:17:47;3.90;;;1.75;;
31764;SDS011;18338;53.240;8.798;2022-11-04T17:20:15;5.78;;;2.53;;